createdAt,value
2022-10-06T00:01:31.116Z,0.55
2022-10-06T00:03:57.756Z,0.98
2022-10-06T00:06:24.270Z,0.80
2022-10-06T00:08:50.853Z,0.63
2022-10-06T00:11:17.491Z,1.08
2022-10-06T00:13:44.737Z,0.93
2022-10-06T00:16:15.383Z,0.80
2022-10-06T00:18:42.794Z,1.40
2022-10-06T00:21:09.356Z,1.10
2022-10-06T00:23:36.293Z,0.90
2022-10-06T00:26:02.908Z,1.02
2022-10-06T00:28:29.849Z,0.98
2022-10-06T00:31:01.131Z,0.80
2022-10-06T00:33:29.189Z,1.00
2022-10-06T00:35:57.039Z,0.77
2022-10-06T00:38:23.821Z,1.02
2022-10-06T00:40:51.441Z,0.88
2022-10-06T00:43:41.457Z,1.00
2022-10-06T00:46:11.195Z,0.80
2022-10-06T00:48:39.761Z,0.90
2022-10-06T00:51:06.471Z,0.63
2022-10-06T00:53:33.452Z,1.00
2022-10-06T00:55:59.990Z,0.80
2022-10-06T00:58:26.952Z,0.85
2022-10-06T01:00:55.142Z,0.90
2022-10-06T01:03:26.406Z,1.33
2022-10-06T01:05:56.002Z,0.85
2022-10-06T01:08:23.513Z,1.20
2022-10-06T01:10:50.179Z,1.05
2022-10-06T01:13:18.184Z,1.10
2022-10-06T01:15:50.299Z,1.00
2022-10-06T01:18:21.877Z,1.10
2022-10-06T01:20:52.689Z,1.05
2022-10-06T01:23:21.117Z,0.90
2022-10-06T01:25:47.769Z,1.10
2022-10-06T01:28:14.872Z,0.93
2022-10-06T01:30:46.463Z,1.58
2022-10-06T01:33:14.109Z,1.52
2022-10-06T01:35:41.460Z,1.10
2022-10-06T01:38:08.074Z,0.85
2022-10-06T01:40:36.533Z,2.25
2022-10-06T01:43:03.242Z,1.25
2022-10-06T01:45:30.005Z,0.90
2022-10-06T01:47:56.650Z,1.10
2022-10-06T01:50:23.324Z,1.30
2022-10-06T01:52:49.946Z,1.23
2022-10-06T01:55:16.650Z,1.05
2022-10-06T01:57:44.696Z,0.93
2022-10-06T02:00:13.381Z,1.30
2022-10-06T02:02:41.893Z,1.23
2022-10-06T02:05:09.073Z,1.40
2022-10-06T02:07:39.040Z,1.23
2022-10-06T02:10:06.671Z,1.55
2022-10-06T02:12:33.832Z,1.25
2022-10-06T02:15:01.816Z,1.38
2022-10-06T02:17:29.144Z,0.98
2022-10-06T02:19:55.798Z,1.38
2022-10-06T02:22:22.473Z,1.55
2022-10-06T02:24:48.983Z,1.25
2022-10-06T02:27:15.677Z,1.33
2022-10-06T02:29:42.262Z,1.20
2022-10-06T02:32:10.644Z,1.23
2022-10-06T02:34:37.208Z,1.00
2022-10-06T02:37:03.976Z,1.40
2022-10-06T02:39:30.515Z,1.27
2022-10-06T02:41:57.286Z,1.20
2022-10-06T02:44:24.347Z,1.75
2022-10-06T02:46:53.718Z,1.30
2022-10-06T02:49:21.843Z,1.48
2022-10-06T02:51:49.112Z,1.45
2022-10-06T02:54:16.044Z,1.52
2022-10-06T02:56:42.896Z,1.80
2022-10-06T02:59:09.504Z,1.45
2022-10-06T03:01:37.508Z,1.50
2022-10-06T03:04:09.882Z,2.33
2022-10-06T03:06:37.879Z,1.50
2022-10-06T03:09:22.478Z,1.08
2022-10-06T03:11:50.899Z,1.30
2022-10-06T03:14:25.554Z,1.10
2022-10-06T03:16:52.562Z,1.35
2022-10-06T03:19:23.496Z,1.73
2022-10-06T03:21:51.559Z,1.60
2022-10-06T03:24:18.404Z,1.77
2022-10-06T03:26:49.363Z,1.85
2022-10-06T03:29:18.047Z,1.42
2022-10-06T03:31:50.223Z,1.23
2022-10-06T03:34:17.024Z,1.60
2022-10-06T03:36:45.346Z,1.65
2022-10-06T03:39:13.993Z,1.30
2022-10-06T03:41:40.897Z,1.35
2022-10-06T03:44:09.253Z,1.45
2022-10-06T03:46:38.452Z,2.38
2022-10-06T03:49:07.297Z,1.50
2022-10-06T03:51:36.213Z,1.90
2022-10-06T03:54:03.524Z,1.67
2022-10-06T03:56:34.993Z,1.52
2022-10-06T03:59:03.837Z,2.22
2022-10-06T04:01:34.197Z,1.92
2022-10-06T04:04:04.228Z,1.58
2022-10-06T04:06:33.357Z,1.40
2022-10-06T04:09:00.289Z,1.63
2022-10-06T04:11:29.629Z,1.65
2022-10-06T04:13:59.705Z,1.55
2022-10-06T04:16:29.388Z,2.28
2022-10-06T04:18:57.729Z,2.10
2022-10-06T04:21:25.621Z,2.05
2022-10-06T04:23:53.251Z,1.48
2022-10-06T04:26:22.191Z,2.05
2022-10-06T04:28:51.677Z,2.42
2022-10-06T04:31:21.769Z,2.15
2022-10-06T04:33:51.876Z,2.35
2022-10-06T04:36:20.358Z,1.60
2022-10-06T04:38:46.988Z,1.83
2022-10-06T04:41:16.087Z,1.77
2022-10-06T04:43:45.037Z,1.75
2022-10-06T04:46:30.675Z,2.03
2022-10-06T04:49:00.466Z,1.90
2022-10-06T04:51:29.932Z,1.80
2022-10-06T04:53:58.283Z,2.40
2022-10-06T04:56:28.490Z,1.85
2022-10-06T04:58:57.866Z,1.90
2022-10-06T05:01:27.308Z,1.92
2022-10-06T05:03:56.201Z,1.60
2022-10-06T05:06:26.061Z,2.10
2022-10-06T05:08:54.270Z,1.85
2022-10-06T05:11:25.651Z,1.80
2022-10-06T05:13:56.206Z,1.98
2022-10-06T05:16:25.627Z,1.65
2022-10-06T05:18:52.955Z,2.15
2022-10-06T05:21:21.541Z,1.60
2022-10-06T05:23:50.253Z,1.85
2022-10-06T05:26:18.922Z,1.98
2022-10-06T05:28:45.730Z,2.10
2022-10-06T05:31:16.793Z,1.80
2022-10-06T05:33:43.973Z,2.10
2022-10-06T05:36:14.212Z,2.42
2022-10-06T05:38:41.531Z,2.15
2022-10-06T05:41:12.277Z,2.15
2022-10-06T05:43:39.463Z,2.45
2022-10-06T05:46:08.529Z,2.67
2022-10-06T05:48:35.320Z,1.98
2022-10-06T05:51:04.898Z,1.95
2022-10-06T05:53:34.449Z,1.85
2022-10-06T05:56:06.464Z,2.40
2022-10-06T05:58:35.914Z,2.17
2022-10-06T06:01:07.669Z,2.58
2022-10-06T06:03:34.448Z,1.83
2022-10-06T06:06:01.155Z,1.85
2022-10-06T06:08:28.638Z,2.33
2022-10-06T06:10:55.549Z,2.08
2022-10-06T06:13:22.694Z,2.45
2022-10-06T06:16:07.581Z,2.30
2022-10-06T06:18:37.140Z,2.50
2022-10-06T06:21:07.290Z,2.20
2022-10-06T06:23:36.281Z,2.60
2022-10-06T06:26:04.960Z,2.42
2022-10-06T06:28:34.997Z,2.28
2022-10-06T06:31:04.990Z,2.30
2022-10-06T06:33:32.248Z,2.22
2022-10-06T06:35:59.076Z,3.28
2022-10-06T06:38:25.680Z,1.73
2022-10-06T06:40:52.312Z,2.00
2022-10-06T06:43:18.986Z,2.25
2022-10-06T06:46:24.459Z,2.30
2022-10-06T06:49:00.271Z,2.00
2022-10-06T06:51:27.079Z,2.17
2022-10-06T06:53:54.020Z,2.28
2022-10-06T06:56:21.064Z,2.70
2022-10-06T06:58:47.817Z,2.30
2022-10-06T07:01:16.417Z,1.77
2022-10-06T07:04:02.602Z,2.80
2022-10-06T07:06:32.714Z,2.58
2022-10-06T07:09:01.549Z,2.05
2022-10-06T07:11:31.073Z,2.20
2022-10-06T07:14:00.578Z,2.70
2022-10-06T07:16:28.459Z,2.17
2022-10-06T07:18:56.543Z,2.17
2022-10-06T07:21:23.135Z,2.30
2022-10-06T07:23:51.794Z,2.15
2022-10-06T07:26:20.433Z,2.22
2022-10-06T07:28:47.985Z,2.15
2022-10-06T07:31:17.281Z,2.55
2022-10-06T07:33:44.342Z,2.00
2022-10-06T07:36:12.210Z,2.17
2022-10-06T07:38:39.533Z,2.28
2022-10-06T07:41:19.032Z,2.70
2022-10-06T07:43:58.885Z,2.58
2022-10-06T07:46:28.084Z,2.63
2022-10-06T07:49:17.058Z,2.80
2022-10-06T07:51:45.119Z,2.47
2022-10-06T07:54:11.733Z,2.20
2022-10-06T07:57:17.187Z,2.25
2022-10-06T07:59:43.846Z,2.78
2022-10-06T08:02:10.583Z,2.55
2022-10-06T08:04:37.515Z,2.22
2022-10-06T08:07:05.419Z,2.40
2022-10-06T08:09:32.133Z,2.28
2022-10-06T08:11:58.850Z,2.10
2022-10-06T08:14:25.483Z,2.60
2022-10-06T08:16:52.486Z,2.42
2022-10-06T08:19:19.072Z,2.13
2022-10-06T08:21:45.622Z,2.58
2022-10-06T08:24:13.761Z,2.33
2022-10-06T08:26:40.302Z,2.65
2022-10-06T08:29:06.869Z,2.20
2022-10-06T08:31:33.510Z,2.13
2022-10-06T08:34:00.254Z,2.28
2022-10-06T08:36:31.286Z,2.55
2022-10-06T08:38:58.297Z,2.10
2022-10-06T08:41:27.984Z,1.85
2022-10-06T08:44:01.888Z,1.80
2022-10-06T08:46:34.667Z,2.53
2022-10-06T08:49:01.696Z,2.00
2022-10-06T08:51:43.737Z,1.98
2022-10-06T08:54:14.613Z,2.17
2022-10-06T08:56:52.982Z,2.03
2022-10-06T08:59:20.614Z,1.70
2022-10-06T09:01:49.198Z,1.75
2022-10-06T09:04:24.294Z,2.35
2022-10-06T09:06:59.414Z,1.98
2022-10-06T09:09:44.695Z,1.67
2022-10-06T09:12:19.278Z,1.70
2022-10-06T09:14:51.575Z,1.63
2022-10-06T09:17:26.361Z,1.90
2022-10-06T09:19:57.934Z,1.80
2022-10-06T09:22:28.810Z,1.83
2022-10-06T09:24:59.450Z,2.30
2022-10-06T09:27:32.069Z,1.40
2022-10-06T09:29:59.156Z,2.03
2022-10-06T09:32:28.275Z,1.40
2022-10-06T09:34:56.907Z,1.67
2022-10-06T09:37:23.786Z,1.80
2022-10-06T09:39:51.765Z,1.98
2022-10-06T09:42:21.323Z,1.75
2022-10-06T09:45:00.704Z,1.90
2022-10-06T09:47:39.582Z,2.00
2022-10-06T09:50:15.691Z,1.75
2022-10-06T09:52:44.085Z,1.90
2022-10-06T09:55:12.696Z,1.90
2022-10-06T09:57:47.687Z,1.92
2022-10-06T10:00:29.337Z,1.80
2022-10-06T10:05:24.492Z,1.50
2022-10-06T10:08:01.414Z,2.10
2022-10-06T10:10:28.076Z,1.48
2022-10-06T10:12:58.977Z,1.75
2022-10-06T10:15:30.095Z,1.58
2022-10-06T10:17:58.721Z,1.50
2022-10-06T10:20:29.914Z,1.40
2022-10-06T10:22:59.781Z,1.60
2022-10-06T10:25:47.193Z,1.60
2022-10-06T10:28:29.375Z,0.90
2022-10-06T10:31:03.463Z,1.60
2022-10-06T10:33:39.762Z,1.63
2022-10-06T10:36:10.562Z,1.40
2022-10-06T10:38:39.915Z,1.25
2022-10-06T10:41:13.414Z,1.40
2022-10-06T10:43:48.717Z,1.25
2022-10-06T10:46:23.725Z,1.20
2022-10-06T10:48:55.326Z,1.25
2022-10-06T10:51:27.472Z,1.10
2022-10-06T10:54:01.026Z,1.27
2022-10-06T10:56:31.401Z,1.38
2022-10-06T10:59:05.346Z,1.48
2022-10-06T11:01:39.440Z,1.13
2022-10-06T11:04:11.114Z,1.15
2022-10-06T11:06:49.763Z,1.17
2022-10-06T11:09:19.312Z,1.02
2022-10-06T11:11:58.596Z,1.25
2022-10-06T11:14:44.985Z,1.40
2022-10-06T11:17:24.761Z,1.42
2022-10-06T11:19:57.629Z,1.40
2022-10-06T11:22:35.184Z,1.35
2022-10-06T11:25:15.306Z,1.10
2022-10-06T11:27:50.407Z,0.98
2022-10-06T11:30:19.806Z,1.02
2022-10-06T11:32:56.104Z,0.95
2022-10-06T11:35:27.637Z,1.23
2022-10-06T11:38:00.863Z,1.20
2022-10-06T11:40:55.218Z,1.40
2022-10-06T11:43:31.444Z,1.00
2022-10-06T11:46:06.055Z,1.10
2022-10-06T11:48:34.374Z,1.10
2022-10-06T11:51:28.570Z,1.17
2022-10-06T11:53:55.423Z,1.33
2022-10-06T11:56:42.721Z,0.93
2022-10-06T11:59:24.018Z,1.13
2022-10-06T12:04:24.356Z,0.85
2022-10-06T12:06:59.566Z,0.80
2022-10-06T12:09:52.274Z,1.00
2022-10-06T12:13:01.937Z,1.20
2022-10-06T12:18:44.410Z,0.90
2022-10-06T12:21:22.731Z,1.25
2022-10-06T12:24:00.173Z,1.15
2022-10-06T12:26:37.394Z,0.90
2022-10-06T12:29:25.383Z,0.82
2022-10-06T12:32:02.246Z,0.80
2022-10-06T12:34:42.791Z,1.20
2022-10-06T12:37:36.790Z,1.10
2022-10-06T12:40:40.963Z,0.90
2022-10-06T12:43:26.482Z,1.00
2022-10-06T12:45:57.350Z,1.27
2022-10-06T12:48:30.781Z,1.00
2022-10-06T12:51:04.637Z,0.77
2022-10-06T12:53:39.834Z,1.10
2022-10-06T12:56:19.135Z,1.00
2022-10-06T12:58:45.771Z,0.80
2022-10-06T13:01:13.300Z,0.88
2022-10-06T13:03:40.085Z,0.80
2022-10-06T13:06:08.712Z,0.68
2022-10-06T13:08:38.415Z,1.00
2022-10-06T13:11:13.735Z,0.88
2022-10-06T13:13:46.609Z,1.00
2022-10-06T13:16:13.884Z,1.13
2022-10-06T13:18:40.802Z,0.88
2022-10-06T13:21:12.572Z,0.93
2022-10-06T13:23:40.635Z,1.20
2022-10-06T13:26:15.523Z,0.82
2022-10-06T13:28:47.110Z,0.80
2022-10-06T13:31:19.673Z,0.70
2022-10-06T13:33:49.714Z,0.75
2022-10-06T13:36:17.518Z,0.93
2022-10-06T13:38:45.464Z,0.80
2022-10-06T13:41:21.206Z,0.70
2022-10-06T13:43:51.650Z,0.60
2022-10-06T13:46:21.550Z,0.88
2022-10-06T13:48:51.083Z,0.55
2022-10-06T13:51:21.241Z,0.80
2022-10-06T13:53:49.932Z,0.95
2022-10-06T13:56:32.451Z,0.82
2022-10-06T13:59:28.644Z,0.93
2022-10-06T14:01:56.107Z,0.95
2022-10-06T14:04:22.775Z,0.85
2022-10-06T14:06:52.524Z,0.95
2022-10-06T14:09:24.972Z,0.82
2022-10-06T14:11:53.197Z,0.77
2022-10-06T14:14:20.095Z,1.00
2022-10-06T14:16:50.369Z,0.57
2022-10-06T14:19:31.505Z,0.80
2022-10-06T14:22:00.538Z,0.80
2022-10-06T14:24:28.652Z,1.02
2022-10-06T14:27:01.129Z,0.82
2022-10-06T14:29:27.840Z,0.75
2022-10-06T14:31:54.641Z,0.93
2022-10-06T14:34:21.802Z,0.85
2022-10-06T14:36:50.732Z,1.00
2022-10-06T14:39:17.823Z,1.05
2022-10-06T14:41:45.765Z,0.63
2022-10-06T14:44:13.132Z,0.60
2022-10-06T14:46:41.364Z,0.93
2022-10-06T14:49:10.101Z,0.70
2022-10-06T14:51:38.482Z,0.93
2022-10-06T14:54:06.283Z,0.85
2022-10-06T14:56:34.683Z,0.75
2022-10-06T14:59:04.398Z,0.68
2022-10-06T15:01:33.378Z,0.65
2022-10-06T15:04:02.370Z,0.88
2022-10-06T15:06:29.427Z,0.60
2022-10-06T15:08:57.603Z,0.80
2022-10-06T15:11:26.393Z,0.60
2022-10-06T15:13:54.027Z,0.63
2022-10-06T15:16:22.025Z,0.65
2022-10-06T15:18:48.991Z,0.50
2022-10-06T15:21:15.992Z,0.65
2022-10-06T15:23:42.544Z,0.60
2022-10-06T15:26:10.552Z,0.75
2022-10-06T15:28:37.119Z,0.60
2022-10-06T15:31:03.776Z,0.90
2022-10-06T15:33:31.722Z,0.63
2022-10-06T15:36:15.604Z,0.60
2022-10-06T15:38:42.732Z,0.75
2022-10-06T15:41:09.583Z,0.80
2022-10-06T15:43:36.326Z,1.30
2022-10-06T15:46:02.911Z,0.80
2022-10-06T15:48:29.487Z,0.52
2022-10-06T15:50:57.458Z,0.73
2022-10-06T15:53:24.087Z,0.82
2022-10-06T15:55:50.646Z,0.80
2022-10-06T16:26:29.223Z,1.00
2022-10-06T16:28:55.997Z,0.63
2022-10-06T16:31:22.992Z,0.90
2022-10-06T16:33:50.174Z,0.80
2022-10-06T16:36:17.761Z,0.77
2022-10-06T16:38:44.636Z,0.90
2022-10-06T16:41:11.530Z,0.73
2022-10-06T16:43:40.925Z,0.70
2022-10-06T16:46:09.514Z,0.95
2022-10-06T16:48:38.313Z,0.70
2022-10-06T16:51:06.525Z,1.10
2022-10-06T16:53:34.576Z,0.82
2022-10-06T16:56:01.134Z,1.10
2022-10-06T16:58:27.718Z,0.63
2022-10-06T17:00:58.814Z,1.10
2022-10-06T17:03:25.522Z,1.63
2022-10-06T17:05:52.056Z,0.77
2022-10-06T17:08:21.920Z,1.08
2022-10-06T17:10:59.226Z,1.20
2022-10-06T17:13:25.968Z,2.10
2022-10-06T17:15:59.513Z,2.10
2022-10-06T17:18:26.435Z,2.70
2022-10-06T17:20:54.576Z,2.75
2022-10-06T17:23:21.390Z,2.38
2022-10-06T17:25:47.994Z,2.40
2022-10-06T17:28:14.629Z,1.90
2022-10-06T17:30:51.266Z,2.53
2022-10-06T17:33:19.468Z,1.80
2022-10-06T17:35:45.986Z,1.60
2022-10-06T17:38:12.739Z,1.38
2022-10-06T17:40:43.364Z,1.13
2022-10-06T17:43:10.302Z,1.42
2022-10-06T17:45:37.918Z,1.27
2022-10-06T17:48:05.047Z,1.05
2022-10-06T17:50:33.199Z,0.85
2022-10-06T17:53:00.139Z,1.13
2022-10-06T17:55:26.664Z,1.35
2022-10-06T17:57:53.407Z,1.40
2022-10-06T18:00:20.109Z,1.13
2022-10-06T18:02:46.791Z,1.40
2022-10-06T18:05:13.564Z,0.93
2022-10-06T18:07:41.522Z,1.17
2022-10-06T18:10:08.367Z,1.00
2022-10-06T18:12:34.933Z,0.80
2022-10-06T18:15:01.586Z,1.20
2022-10-06T18:17:28.154Z,1.05
2022-10-06T18:19:54.663Z,0.90
2022-10-06T18:22:21.222Z,1.30
2022-10-06T18:24:49.103Z,1.10
2022-10-06T18:27:15.691Z,1.23
2022-10-06T18:29:42.205Z,1.25
2022-10-06T18:33:19.329Z,1.30
2022-10-06T18:37:42.272Z,1.00
2022-10-06T18:40:11.509Z,1.15
2022-10-06T18:42:38.234Z,1.00
2022-10-06T18:45:06.073Z,1.23
2022-10-06T18:47:32.691Z,1.17
2022-10-06T18:49:59.243Z,1.08
2022-10-06T18:52:25.883Z,1.00
2022-10-06T18:54:52.559Z,0.90
2022-10-06T18:57:25.078Z,1.23
2022-10-06T18:59:53.950Z,1.10
2022-10-06T19:02:20.493Z,1.50
2022-10-06T19:04:47.064Z,1.00
2022-10-06T19:07:13.738Z,0.90
2022-10-06T19:09:45.339Z,1.20
2022-10-06T19:12:13.331Z,1.17
2022-10-06T19:14:41.404Z,1.13
2022-10-06T19:17:09.516Z,1.30
2022-10-06T19:19:36.073Z,1.00
2022-10-06T19:22:04.627Z,1.02
2022-10-06T19:24:35.557Z,1.25
2022-10-06T19:27:03.238Z,1.23
2022-10-06T19:29:29.787Z,1.48
2022-10-06T19:31:58.815Z,1.25
2022-10-06T19:34:26.146Z,1.20
2022-10-06T19:36:52.967Z,1.40
2022-10-06T19:39:22.317Z,1.20
2022-10-06T19:41:49.820Z,1.02
2022-10-06T19:44:17.198Z,1.17
2022-10-06T19:46:43.785Z,1.10
2022-10-06T19:49:11.798Z,1.20
2022-10-06T19:51:39.443Z,1.35
2022-10-06T19:54:06.025Z,1.25
2022-10-06T19:56:32.685Z,1.40
2022-10-06T19:58:59.577Z,1.10
2022-10-06T20:01:26.531Z,1.15
2022-10-06T20:03:53.325Z,1.40
2022-10-06T20:06:21.863Z,1.20
2022-10-06T20:08:48.446Z,1.13
2022-10-06T20:11:17.726Z,1.50
2022-10-06T20:13:45.126Z,1.13
2022-10-06T20:16:13.679Z,1.40
2022-10-06T20:18:42.095Z,1.20
2022-10-06T20:21:13.488Z,1.02
2022-10-06T20:23:41.440Z,1.33
2022-10-06T20:26:10.015Z,2.00
2022-10-06T20:28:36.666Z,1.30
2022-10-06T20:31:03.505Z,1.40
2022-10-06T20:33:33.382Z,1.55
2022-10-06T20:36:01.106Z,1.40
2022-10-06T20:38:27.791Z,1.50
2022-10-06T20:40:55.689Z,1.30
2022-10-06T20:43:22.240Z,1.55
2022-10-06T20:45:48.831Z,1.67
2022-10-06T20:48:15.490Z,1.20
2022-10-06T20:50:42.075Z,1.42
2022-10-06T20:53:08.649Z,1.70
2022-10-06T20:55:35.195Z,1.40
2022-10-06T20:58:03.263Z,1.77
2022-10-06T21:00:30.015Z,1.73
2022-10-06T21:02:56.606Z,1.45
2022-10-06T21:05:23.258Z,1.92
2022-10-06T21:07:49.797Z,1.60
2022-10-06T21:10:16.573Z,1.92
2022-10-06T21:12:43.096Z,1.70
2022-10-06T21:15:11.149Z,2.00
2022-10-06T21:17:37.702Z,2.47
2022-10-06T21:20:05.090Z,1.75
2022-10-06T21:22:31.632Z,1.85
2022-10-06T21:24:58.229Z,1.85
2022-10-06T21:27:24.870Z,2.05
2022-10-06T21:29:51.545Z,1.95
2022-10-06T21:32:19.645Z,2.35
2022-10-06T21:34:46.176Z,2.05
2022-10-06T21:37:12.699Z,2.15
2022-10-06T21:39:39.359Z,1.92
2022-10-06T21:42:05.971Z,1.92
2022-10-06T21:44:32.560Z,2.50
2022-10-06T21:46:59.221Z,2.28
2022-10-06T21:49:27.164Z,3.20
2022-10-06T21:51:55.861Z,2.40
2022-10-06T21:54:23.214Z,2.53
2022-10-06T21:56:50.144Z,2.40
2022-10-06T21:59:17.886Z,2.40
2022-10-06T22:01:46.617Z,2.90
2022-10-06T22:04:14.524Z,2.53
2022-10-06T22:06:44.114Z,2.25
2022-10-06T22:09:15.019Z,2.70
2022-10-06T22:11:42.106Z,3.00
2022-10-06T22:14:11.268Z,2.88
2022-10-06T22:16:38.668Z,2.50
2022-10-06T22:19:07.558Z,2.85
2022-10-06T22:21:36.180Z,3.35
2022-10-06T22:24:06.176Z,3.72
2022-10-06T22:26:34.708Z,2.60
2022-10-06T22:29:01.429Z,3.15
2022-10-06T22:31:28.722Z,2.85
2022-10-06T22:33:58.472Z,3.13
2022-10-06T22:36:26.520Z,3.00
2022-10-06T22:38:54.854Z,2.83
2022-10-06T22:41:24.487Z,2.85
2022-10-06T22:43:54.660Z,3.55
2022-10-06T22:46:21.886Z,3.20
2022-10-06T22:48:49.985Z,2.90
2022-10-06T22:51:17.392Z,2.92
2022-10-06T22:53:44.726Z,2.60
2022-10-06T22:56:12.858Z,3.10
2022-10-06T22:58:42.815Z,3.05
2022-10-06T23:01:12.736Z,3.17
2022-10-06T23:03:39.758Z,3.10
2022-10-06T23:06:07.786Z,2.63
2022-10-06T23:08:35.426Z,3.13
2022-10-06T23:11:06.509Z,2.80
2022-10-06T23:13:33.456Z,3.30
2022-10-06T23:16:07.793Z,3.90
2022-10-06T23:18:36.632Z,3.00
2022-10-06T23:21:04.304Z,3.17
2022-10-06T23:23:31.416Z,3.25
2022-10-06T23:26:03.358Z,3.15
2022-10-06T23:28:30.298Z,3.85
2022-10-06T23:30:57.240Z,3.20
2022-10-06T23:33:25.287Z,2.97
2022-10-06T23:35:58.871Z,3.05
2022-10-06T23:38:26.139Z,3.15
2022-10-06T23:40:52.984Z,3.10
2022-10-06T23:43:20.256Z,2.90
2022-10-06T23:45:46.964Z,3.10
2022-10-06T23:48:13.831Z,2.83
2022-10-06T23:50:42.137Z,3.22
2022-10-06T23:53:09.099Z,2.75
2022-10-06T23:55:35.824Z,3.17
2022-10-06T23:58:02.620Z,3.22
